sensor_id;sensor_type;location;lat;lon;timestamp;pressure;altitude;pressure_sealevel;temperature;humidity
62124;BME280;48110;47.532;19.078;2023-04-25T00:01:23;99333.09;;;10.63;100.00
62124;BME280;48110;47.532;19.078;2023-04-25T00:04:26;99331.50;;;10.69;100.00
62124;BME280;48110;47.532;19.078;2023-04-25T00:07:29;99326.62;;;10.72;100.00
62124;BME280;48110;47.532;19.078;2023-04-25T00:10:32;99329.13;;;10.80;100.00
62124;BME280;48110;47.532;19.078;2023-04-25T00:13:37;99330.78;;;10.81;100.00
62124;BME280;48110;47.532;19.078;2023-04-25T00:16:43;99327.72;;;10.84;100.00
62124;BME280;48110;47.532;19.078;2023-04-25T00:19:46;99325.69;;;10.86;100.00
62124;BME280;48110;47.532;19.078;2023-04-25T00:22:50;99322.28;;;10.93;100.00
62124;BME280;48110;47.532;19.078;2023-04-25T00:25:52;99316.13;;;10.92;100.00
62124;BME280;48110;47.532;19.078;2023-04-25T00:28:55;99323.50;;;10.97;100.00
62124;BME280;48110;47.532;19.078;2023-04-25T00:31:57;99324.09;;;10.92;100.00
62124;BME280;48110;47.532;19.078;2023-04-25T00:35:01;99315.91;;;10.87;100.00
62124;BME280;48110;47.532;19.078;2023-04-25T00:38:03;99323.47;;;10.90;100.00
62124;BME280;48110;47.532;19.078;2023-04-25T00:41:07;99312.84;;;10.90;100.00
62124;BME280;48110;47.532;19.078;2023-04-25T00:44:09;99307.75;;;10.88;100.00
62124;BME280;48110;47.532;19.078;2023-04-25T00:47:13;99304.31;;;10.95;100.00
62124;BME280;48110;47.532;19.078;2023-04-25T00:50:16;99303.69;;;10.93;100.00
62124;BME280;48110;47.532;19.078;2023-04-25T00:53:22;99300.22;;;10.92;100.00
62124;BME280;48110;47.532;19.078;2023-04-25T00:56:25;99301.00;;;10.86;100.00
62124;BME280;48110;47.532;19.078;2023-04-25T00:59:28;99304.06;;;10.89;100.00
62124;BME280;48110;47.532;19.078;2023-04-25T01:02:32;99302.81;;;10.85;100.00
62124;BME280;48110;47.532;19.078;2023-04-25T01:05:35;99298.16;;;10.87;100.00
62124;BME280;48110;47.532;19.078;2023-04-25T01:08:37;99279.34;;;10.82;100.00
62124;BME280;48110;47.532;19.078;2023-04-25T01:11:42;99284.47;;;10.90;100.00
62124;BME280;48110;47.532;19.078;2023-04-25T01:14:44;99280.59;;;10.86;100.00
62124;BME280;48110;47.532;19.078;2023-04-25T01:17:47;99263.63;;;10.81;100.00
62124;BME280;48110;47.532;19.078;2023-04-25T01:20:51;99267.28;;;10.80;100.00
62124;BME280;48110;47.532;19.078;2023-04-25T01:23:55;99266.91;;;10.83;100.00
62124;BME280;48110;47.532;19.078;2023-04-25T01:26:58;99264.84;;;10.78;100.00
62124;BME280;48110;47.532;19.078;2023-04-25T01:30:01;99277.25;;;10.71;100.00
62124;BME280;48110;47.532;19.078;2023-04-25T01:33:04;99271.16;;;10.77;100.00
62124;BME280;48110;47.532;19.078;2023-04-25T01:36:07;99279.94;;;10.78;100.00
62124;BME280;48110;47.532;19.078;2023-04-25T01:39:10;99266.63;;;10.65;100.00
62124;BME280;48110;47.532;19.078;2023-04-25T01:42:13;99269.69;;;10.68;100.00
62124;BME280;48110;47.532;19.078;2023-04-25T01:45:16;99275.34;;;10.59;100.00
62124;BME280;48110;47.532;19.078;2023-04-25T01:48:18;99261.87;;;10.60;100.00
62124;BME280;48110;47.532;19.078;2023-04-25T01:51:21;99280.41;;;10.54;100.00
62124;BME280;48110;47.532;19.078;2023-04-25T01:54:24;99273.03;;;10.49;100.00
62124;BME280;48110;47.532;19.078;2023-04-25T01:57:26;99267.09;;;10.47;100.00
62124;BME280;48110;47.532;19.078;2023-04-25T02:00:29;99269.37;;;10.50;100.00
62124;BME280;48110;47.532;19.078;2023-04-25T02:03:34;99264.06;;;10.50;100.00
62124;BME280;48110;47.532;19.078;2023-04-25T02:06:37;99267.50;;;10.51;100.00
62124;BME280;48110;47.532;19.078;2023-04-25T02:09:41;99266.12;;;10.55;100.00
62124;BME280;48110;47.532;19.078;2023-04-25T02:12:46;99265.31;;;10.54;100.00
62124;BME280;48110;47.532;19.078;2023-04-25T02:15:48;99262.03;;;10.52;100.00
62124;BME280;48110;47.532;19.078;2023-04-25T02:18:51;99270.81;;;10.53;100.00
62124;BME280;48110;47.532;19.078;2023-04-25T02:21:55;99271.00;;;10.51;100.00
62124;BME280;48110;47.532;19.078;2023-04-25T02:24:59;99274.69;;;10.57;100.00
62124;BME280;48110;47.532;19.078;2023-04-25T02:28:03;99273.88;;;10.56;100.00
62124;BME280;48110;47.532;19.078;2023-04-25T02:31:06;99278.56;;;10.54;100.00
62124;BME280;48110;47.532;19.078;2023-04-25T02:34:08;99279.00;;;10.58;100.00
62124;BME280;48110;47.532;19.078;2023-04-25T02:37:12;99279.19;;;10.56;100.00
62124;BME280;48110;47.532;19.078;2023-04-25T02:40:14;99264.91;;;10.57;100.00
62124;BME280;48110;47.532;19.078;2023-04-25T02:43:17;99270.84;;;10.59;100.00
62124;BME280;48110;47.532;19.078;2023-04-25T02:46:19;99263.91;;;10.58;100.00
62124;BME280;48110;47.532;19.078;2023-04-25T02:49:40;99267.81;;;10.62;100.00
62124;BME280;48110;47.532;19.078;2023-04-25T02:52:43;99263.31;;;10.63;100.00
62124;BME280;48110;47.532;19.078;2023-04-25T02:55:46;99270.63;;;10.61;100.00
62124;BME280;48110;47.532;19.078;2023-04-25T02:58:49;99258.59;;;10.58;100.00
62124;BME280;48110;47.532;19.078;2023-04-25T03:01:51;99265.75;;;10.58;100.00
62124;BME280;48110;47.532;19.078;2023-04-25T03:04:54;99267.38;;;10.59;100.00
62124;BME280;48110;47.532;19.078;2023-04-25T03:07:56;99270.22;;;10.57;100.00
62124;BME280;48110;47.532;19.078;2023-04-25T03:10:59;99269.44;;;10.63;100.00
62124;BME280;48110;47.532;19.078;2023-04-25T03:14:02;99270.37;;;10.49;100.00
62124;BME280;48110;47.532;19.078;2023-04-25T03:17:05;99266.47;;;10.45;100.00
62124;BME280;48110;47.532;19.078;2023-04-25T03:20:10;99266.09;;;10.48;100.00
62124;BME280;48110;47.532;19.078;2023-04-25T03:23:12;99256.06;;;10.43;100.00
62124;BME280;48110;47.532;19.078;2023-04-25T03:26:15;99261.31;;;10.37;100.00
62124;BME280;48110;47.532;19.078;2023-04-25T03:29:18;99252.50;;;10.30;100.00
62124;BME280;48110;47.532;19.078;2023-04-25T03:32:21;99253.69;;;10.27;100.00
62124;BME280;48110;47.532;19.078;2023-04-25T03:35:24;99256.94;;;10.23;100.00
62124;BME280;48110;47.532;19.078;2023-04-25T03:38:27;99267.34;;;10.24;100.00
62124;BME280;48110;47.532;19.078;2023-04-25T03:41:30;99258.50;;;10.17;100.00
62124;BME280;48110;47.532;19.078;2023-04-25T03:44:34;99264.56;;;10.11;100.00
62124;BME280;48110;47.532;19.078;2023-04-25T03:47:37;99263.81;;;10.17;100.00
62124;BME280;48110;47.532;19.078;2023-04-25T03:50:39;99260.84;;;10.06;100.00
62124;BME280;48110;47.532;19.078;2023-04-25T03:53:42;99269.16;;;10.02;100.00
62124;BME280;48110;47.532;19.078;2023-04-25T03:56:49;99269.22;;;10.09;100.00
62124;BME280;48110;47.532;19.078;2023-04-25T03:59:52;99274.34;;;9.89;100.00
62124;BME280;48110;47.532;19.078;2023-04-25T04:02:55;99254.37;;;9.87;100.00
62124;BME280;48110;47.532;19.078;2023-04-25T04:05:58;99268.44;;;9.87;100.00
62124;BME280;48110;47.532;19.078;2023-04-25T04:09:01;99281.69;;;9.87;100.00
62124;BME280;48110;47.532;19.078;2023-04-25T04:12:06;99265.34;;;9.84;100.00
62124;BME280;48110;47.532;19.078;2023-04-25T04:15:09;99274.44;;;9.75;100.00
62124;BME280;48110;47.532;19.078;2023-04-25T04:18:13;99284.19;;;9.74;100.00
62124;BME280;48110;47.532;19.078;2023-04-25T04:21:15;99288.22;;;9.70;100.00
62124;BME280;48110;47.532;19.078;2023-04-25T04:24:19;99285.97;;;9.67;100.00
62124;BME280;48110;47.532;19.078;2023-04-25T04:27:22;99278.38;;;9.64;100.00
62124;BME280;48110;47.532;19.078;2023-04-25T04:30:25;99293.09;;;9.67;100.00
62124;BME280;48110;47.532;19.078;2023-04-25T04:33:32;99282.13;;;9.70;100.00
62124;BME280;48110;47.532;19.078;2023-04-25T04:36:35;99286.16;;;9.66;100.00
62124;BME280;48110;47.532;19.078;2023-04-25T04:39:37;99289.19;;;9.63;100.00
62124;BME280;48110;47.532;19.078;2023-04-25T04:42:42;99286.53;;;9.63;100.00
62124;BME280;48110;47.532;19.078;2023-04-25T04:45:44;99287.91;;;9.58;100.00
62124;BME280;48110;47.532;19.078;2023-04-25T04:48:47;99294.03;;;9.59;100.00
62124;BME280;48110;47.532;19.078;2023-04-25T04:51:50;99279.78;;;9.60;100.00
62124;BME280;48110;47.532;19.078;2023-04-25T04:54:53;99286.47;;;9.56;100.00
62124;BME280;48110;47.532;19.078;2023-04-25T04:57:56;99282.06;;;9.63;100.00
62124;BME280;48110;47.532;19.078;2023-04-25T05:00:59;99292.00;;;9.61;100.00
62124;BME280;48110;47.532;19.078;2023-04-25T05:04:02;99283.72;;;9.49;100.00
62124;BME280;48110;47.532;19.078;2023-04-25T05:07:07;99294.72;;;9.46;100.00
62124;BME280;48110;47.532;19.078;2023-04-25T05:10:13;99299.91;;;9.40;100.00
62124;BME280;48110;47.532;19.078;2023-04-25T05:13:16;99294.78;;;9.17;100.00
62124;BME280;48110;47.532;19.078;2023-04-25T05:16:18;99297.81;;;9.14;100.00
62124;BME280;48110;47.532;19.078;2023-04-25T05:19:22;99301.91;;;9.02;100.00
62124;BME280;48110;47.532;19.078;2023-04-25T05:22:25;99309.22;;;9.00;100.00
62124;BME280;48110;47.532;19.078;2023-04-25T05:25:28;99312.94;;;8.91;100.00
62124;BME280;48110;47.532;19.078;2023-04-25T05:28:31;99299.91;;;8.89;100.00
62124;BME280;48110;47.532;19.078;2023-04-25T05:31:35;99301.19;;;8.79;100.00
62124;BME280;48110;47.532;19.078;2023-04-25T05:34:39;99297.56;;;8.80;100.00
62124;BME280;48110;47.532;19.078;2023-04-25T05:37:42;99300.25;;;8.71;100.00
62124;BME280;48110;47.532;19.078;2023-04-25T05:40:45;99304.19;;;8.61;100.00
62124;BME280;48110;47.532;19.078;2023-04-25T05:43:50;99305.63;;;8.49;100.00
62124;BME280;48110;47.532;19.078;2023-04-25T05:46:54;99299.78;;;8.39;100.00
62124;BME280;48110;47.532;19.078;2023-04-25T05:50:02;99304.62;;;8.35;100.00
62124;BME280;48110;47.532;19.078;2023-04-25T05:53:05;99293.06;;;8.36;100.00
62124;BME280;48110;47.532;19.078;2023-04-25T05:56:08;99313.41;;;8.27;100.00
62124;BME280;48110;47.532;19.078;2023-04-25T05:59:10;99315.94;;;8.21;100.00
62124;BME280;48110;47.532;19.078;2023-04-25T06:02:13;99315.13;;;8.20;100.00
62124;BME280;48110;47.532;19.078;2023-04-25T06:05:16;99314.13;;;8.21;100.00
62124;BME280;48110;47.532;19.078;2023-04-25T06:08:19;99311.19;;;8.16;100.00
62124;BME280;48110;47.532;19.078;2023-04-25T06:11:22;99317.47;;;8.15;100.00
62124;BME280;48110;47.532;19.078;2023-04-25T06:14:24;99314.94;;;8.22;100.00
62124;BME280;48110;47.532;19.078;2023-04-25T06:17:31;99319.41;;;8.21;100.00
62124;BME280;48110;47.532;19.078;2023-04-25T06:20:34;99313.47;;;8.19;100.00
62124;BME280;48110;47.532;19.078;2023-04-25T06:23:37;99330.75;;;8.30;100.00
62124;BME280;48110;47.532;19.078;2023-04-25T06:26:39;99326.03;;;8.40;100.00
62124;BME280;48110;47.532;19.078;2023-04-25T06:29:42;99333.81;;;8.42;100.00
62124;BME280;48110;47.532;19.078;2023-04-25T06:32:45;99331.25;;;8.48;100.00
62124;BME280;48110;47.532;19.078;2023-04-25T06:35:48;99330.53;;;8.54;100.00
62124;BME280;48110;47.532;19.078;2023-04-25T06:38:51;99337.19;;;8.65;100.00
62124;BME280;48110;47.532;19.078;2023-04-25T06:41:54;99324.44;;;8.68;100.00
62124;BME280;48110;47.532;19.078;2023-04-25T06:45:04;99318.97;;;8.70;100.00
62124;BME280;48110;47.532;19.078;2023-04-25T06:48:09;99331.81;;;8.88;100.00
62124;BME280;48110;47.532;19.078;2023-04-25T06:51:12;99326.16;;;8.91;100.00
62124;BME280;48110;47.532;19.078;2023-04-25T06:54:15;99332.75;;;8.95;100.00
62124;BME280;48110;47.532;19.078;2023-04-25T06:57:20;99328.81;;;9.05;100.00
62124;BME280;48110;47.532;19.078;2023-04-25T07:00:23;99329.44;;;9.07;100.00
62124;BME280;48110;47.532;19.078;2023-04-25T07:03:25;99331.34;;;9.28;100.00
62124;BME280;48110;47.532;19.078;2023-04-25T07:06:29;99323.69;;;9.19;100.00
62124;BME280;48110;47.532;19.078;2023-04-25T07:09:32;99327.97;;;9.34;100.00
62124;BME280;48110;47.532;19.078;2023-04-25T07:12:36;99333.44;;;9.33;100.00
62124;BME280;48110;47.532;19.078;2023-04-25T07:15:39;99335.56;;;9.58;100.00
62124;BME280;48110;47.532;19.078;2023-04-25T07:18:42;99326.31;;;9.69;100.00
62124;BME280;48110;47.532;19.078;2023-04-25T07:21:44;99330.13;;;9.81;100.00
62124;BME280;48110;47.532;19.078;2023-04-25T07:24:47;99328.78;;;10.13;100.00
62124;BME280;48110;47.532;19.078;2023-04-25T07:27:53;99332.69;;;10.60;100.00
62124;BME280;48110;47.532;19.078;2023-04-25T07:30:56;99335.91;;;10.89;100.00
62124;BME280;48110;47.532;19.078;2023-04-25T07:34:00;99336.03;;;10.75;100.00
62124;BME280;48110;47.532;19.078;2023-04-25T07:37:03;99335.31;;;10.94;100.00
62124;BME280;48110;47.532;19.078;2023-04-25T07:40:08;99340.31;;;10.76;100.00
62124;BME280;48110;47.532;19.078;2023-04-25T07:43:13;99339.50;;;11.10;100.00
62124;BME280;48110;47.532;19.078;2023-04-25T07:46:19;99344.53;;;11.32;100.00
62124;BME280;48110;47.532;19.078;2023-04-25T07:49:22;99340.00;;;11.26;100.00
62124;BME280;48110;47.532;19.078;2023-04-25T07:52:24;99345.31;;;11.74;100.00
62124;BME280;48110;47.532;19.078;2023-04-25T07:55:27;99357.19;;;11.85;100.00
62124;BME280;48110;47.532;19.078;2023-04-25T07:58:30;99347.09;;;11.67;100.00
62124;BME280;48110;47.532;19.078;2023-04-25T08:01:33;99358.16;;;11.70;100.00
62124;BME280;48110;47.532;19.078;2023-04-25T08:04:36;99345.16;;;12.02;100.00
62124;BME280;48110;47.532;19.078;2023-04-25T08:07:40;99345.81;;;12.56;100.00
62124;BME280;48110;47.532;19.078;2023-04-25T08:10:42;99348.47;;;12.17;100.00
62124;BME280;48110;47.532;19.078;2023-04-25T08:13:45;99370.97;;;12.74;100.00
62124;BME280;48110;47.532;19.078;2023-04-25T08:16:48;99356.44;;;12.50;100.00
62124;BME280;48110;47.532;19.078;2023-04-25T08:19:50;99356.25;;;12.71;100.00
62124;BME280;48110;47.532;19.078;2023-04-25T08:22:54;99359.50;;;12.80;100.00
62124;BME280;48110;47.532;19.078;2023-04-25T08:25:57;99354.59;;;12.70;100.00
62124;BME280;48110;47.532;19.078;2023-04-25T08:29:00;99350.47;;;13.00;100.00
62124;BME280;48110;47.532;19.078;2023-04-25T08:32:03;99353.13;;;13.00;100.00
62124;BME280;48110;47.532;19.078;2023-04-25T08:35:07;99351.13;;;12.76;100.00
62124;BME280;48110;47.532;19.078;2023-04-25T08:38:09;99351.34;;;12.68;100.00
62124;BME280;48110;47.532;19.078;2023-04-25T08:41:12;99346.34;;;13.04;100.00
62124;BME280;48110;47.532;19.078;2023-04-25T08:44:15;99353.41;;;12.53;100.00
62124;BME280;48110;47.532;19.078;2023-04-25T08:47:19;99371.78;;;12.54;100.00
62124;BME280;48110;47.532;19.078;2023-04-25T08:50:24;99366.66;;;12.27;100.00
62124;BME280;48110;47.532;19.078;2023-04-25T08:53:30;99371.78;;;12.54;100.00
62124;BME280;48110;47.532;19.078;2023-04-25T08:56:33;99377.75;;;12.56;100.00
62124;BME280;48110;47.532;19.078;2023-04-25T08:59:38;99374.25;;;12.43;100.00
62124;BME280;48110;47.532;19.078;2023-04-25T09:02:42;99380.97;;;12.26;100.00
62124;BME280;48110;47.532;19.078;2023-04-25T09:05:46;99381.22;;;12.50;100.00
62124;BME280;48110;47.532;19.078;2023-04-25T09:08:50;99371.59;;;12.36;100.00
62124;BME280;48110;47.532;19.078;2023-04-25T09:11:54;99377.47;;;12.97;100.00
62124;BME280;48110;47.532;19.078;2023-04-25T09:15:08;99374.00;;;13.23;100.00
62124;BME280;48110;47.532;19.078;2023-04-25T09:18:13;99376.97;;;13.53;100.00
62124;BME280;48110;47.532;19.078;2023-04-25T09:21:16;99384.34;;;13.51;100.00
62124;BME280;48110;47.532;19.078;2023-04-25T09:27:34;99384.28;;;12.87;100.00
62124;BME280;48110;47.532;19.078;2023-04-25T09:30:37;99384.63;;;13.81;100.00
62124;BME280;48110;47.532;19.078;2023-04-25T09:33:40;99364.59;;;13.72;100.00
62124;BME280;48110;47.532;19.078;2023-04-25T09:36:43;99363.00;;;13.58;100.00
62124;BME280;48110;47.532;19.078;2023-04-25T09:39:52;99362.84;;;13.90;100.00
62124;BME280;48110;47.532;19.078;2023-04-25T09:42:55;99366.94;;;14.56;98.18
62124;BME280;48110;47.532;19.078;2023-04-25T09:45:58;99377.91;;;15.34;91.45
62124;BME280;48110;47.532;19.078;2023-04-25T09:49:06;99385.13;;;16.94;81.34
62124;BME280;48110;47.532;19.078;2023-04-25T09:52:13;99374.09;;;15.59;83.83
62124;BME280;48110;47.532;19.078;2023-04-25T09:55:19;99371.84;;;15.02;84.35
62124;BME280;48110;47.532;19.078;2023-04-25T09:58:23;99374.34;;;14.54;89.97
62124;BME280;48110;47.532;19.078;2023-04-25T10:01:28;99360.81;;;14.49;86.47
62124;BME280;48110;47.532;19.078;2023-04-25T10:04:35;99373.00;;;14.88;87.26
62124;BME280;48110;47.532;19.078;2023-04-25T10:07:38;99376.19;;;15.39;83.25
62124;BME280;48110;47.532;19.078;2023-04-25T10:10:42;99370.81;;;15.03;82.91
62124;BME280;48110;47.532;19.078;2023-04-25T10:13:46;99365.41;;;14.66;84.53
62124;BME280;48110;47.532;19.078;2023-04-25T10:16:50;99384.09;;;14.42;82.49
62124;BME280;48110;47.532;19.078;2023-04-25T10:19:55;99365.41;;;13.66;85.67
62124;BME280;48110;47.532;19.078;2023-04-25T10:23:06;99373.66;;;13.64;89.99
62124;BME280;48110;47.532;19.078;2023-04-25T10:26:12;99369.09;;;13.71;85.49
62124;BME280;48110;47.532;19.078;2023-04-25T10:29:26;99369.94;;;14.41;84.34
62124;BME280;48110;47.532;19.078;2023-04-25T10:32:28;99377.94;;;13.65;84.79
62124;BME280;48110;47.532;19.078;2023-04-25T10:35:32;99363.22;;;13.56;84.78
62124;BME280;48110;47.532;19.078;2023-04-25T10:38:36;99368.16;;;13.53;85.74
62124;BME280;48110;47.532;19.078;2023-04-25T10:41:46;99364.19;;;13.68;84.06
62124;BME280;48110;47.532;19.078;2023-04-25T10:45:04;99364.56;;;14.10;78.32
62124;BME280;48110;47.532;19.078;2023-04-25T10:51:30;99375.53;;;14.26;79.32
62124;BME280;48110;47.532;19.078;2023-04-25T10:54:56;99384.63;;;14.75;74.40
62124;BME280;48110;47.532;19.078;2023-04-25T10:57:58;99382.63;;;16.16;66.25
62124;BME280;48110;47.532;19.078;2023-04-25T11:01:03;99378.50;;;16.02;65.77
62124;BME280;48110;47.532;19.078;2023-04-25T11:04:05;99388.03;;;16.39;64.20
62124;BME280;48110;47.532;19.078;2023-04-25T11:10:25;99393.50;;;15.55;66.76
62124;BME280;48110;47.532;19.078;2023-04-25T11:13:29;99398.59;;;16.64;59.28
62124;BME280;48110;47.532;19.078;2023-04-25T11:16:31;99398.84;;;15.73;60.45
62124;BME280;48110;47.532;19.078;2023-04-25T11:19:34;99395.66;;;14.60;65.01
62124;BME280;48110;47.532;19.078;2023-04-25T11:22:37;99402.97;;;15.33;63.82
62124;BME280;48110;47.532;19.078;2023-04-25T11:25:41;99401.25;;;15.93;63.44
62124;BME280;48110;47.532;19.078;2023-04-25T11:28:48;99399.59;;;15.01;61.75
62124;BME280;48110;47.532;19.078;2023-04-25T11:31:51;99411.81;;;16.18;61.20
62124;BME280;48110;47.532;19.078;2023-04-25T11:34:54;99407.72;;;16.98;57.45
62124;BME280;48110;47.532;19.078;2023-04-25T11:37:57;99405.41;;;18.78;52.33
62124;BME280;48110;47.532;19.078;2023-04-25T11:40:59;99405.03;;;17.85;54.00
62124;BME280;48110;47.532;19.078;2023-04-25T11:44:04;99411.66;;;17.94;55.37
62124;BME280;48110;47.532;19.078;2023-04-25T11:47:07;99406.37;;;16.24;56.52
62124;BME280;48110;47.532;19.078;2023-04-25T11:50:10;99408.47;;;15.74;58.74
62124;BME280;48110;47.532;19.078;2023-04-25T11:53:12;99411.28;;;15.43;59.76
62124;BME280;48110;47.532;19.078;2023-04-25T11:56:15;99408.72;;;14.68;60.22
62124;BME280;48110;47.532;19.078;2023-04-25T11:59:18;99418.50;;;14.18;61.53
62124;BME280;48110;47.532;19.078;2023-04-25T12:02:25;99415.72;;;14.63;58.64
62124;BME280;48110;47.532;19.078;2023-04-25T12:05:29;99420.16;;;14.75;58.80
62124;BME280;48110;47.532;19.078;2023-04-25T12:08:35;99433.28;;;15.02;56.36
62124;BME280;48110;47.532;19.078;2023-04-25T12:11:42;99420.91;;;14.83;56.50
62124;BME280;48110;47.532;19.078;2023-04-25T12:14:48;99435.44;;;15.11;59.67
62124;BME280;48110;47.532;19.078;2023-04-25T12:17:52;99429.19;;;15.24;60.01
62124;BME280;48110;47.532;19.078;2023-04-25T12:20:54;99432.13;;;15.77;59.23
62124;BME280;48110;47.532;19.078;2023-04-25T12:24:08;99438.91;;;17.62;53.47
62124;BME280;48110;47.532;19.078;2023-04-25T12:27:11;99425.16;;;20.04;46.25
62124;BME280;48110;47.532;19.078;2023-04-25T12:30:18;99433.25;;;19.82;45.47
62124;BME280;48110;47.532;19.078;2023-04-25T12:33:21;99429.69;;;20.79;43.66
62124;BME280;48110;47.532;19.078;2023-04-25T12:36:24;99424.13;;;22.77;38.88
62124;BME280;48110;47.532;19.078;2023-04-25T12:39:26;99428.69;;;23.22;37.32
62124;BME280;48110;47.532;19.078;2023-04-25T12:42:29;99417.50;;;24.62;36.83
62124;BME280;48110;47.532;19.078;2023-04-25T12:45:31;99428.53;;;26.05;31.88
62124;BME280;48110;47.532;19.078;2023-04-25T12:48:34;99404.88;;;25.39;32.55
62124;BME280;48110;47.532;19.078;2023-04-25T12:51:37;99388.38;;;22.30;35.66
62124;BME280;48110;47.532;19.078;2023-04-25T12:54:40;99398.13;;;22.56;36.07
62124;BME280;48110;47.532;19.078;2023-04-25T12:57:43;99389.72;;;23.28;35.37
62124;BME280;48110;47.532;19.078;2023-04-25T13:00:45;99396.91;;;24.61;32.80
62124;BME280;48110;47.532;19.078;2023-04-25T13:03:48;99393.84;;;25.31;32.50
62124;BME280;48110;47.532;19.078;2023-04-25T13:06:51;99409.03;;;25.03;31.45
62124;BME280;48110;47.532;19.078;2023-04-25T13:09:53;99398.41;;;25.35;30.50
62124;BME280;48110;47.532;19.078;2023-04-25T13:12:57;99390.34;;;26.15;28.88
62124;BME280;48110;47.532;19.078;2023-04-25T13:16:03;99386.50;;;26.72;27.31
62124;BME280;48110;47.532;19.078;2023-04-25T13:19:06;99392.94;;;26.95;28.56
62124;BME280;48110;47.532;19.078;2023-04-25T13:22:10;99385.41;;;25.32;29.79
62124;BME280;48110;47.532;19.078;2023-04-25T13:25:13;99382.75;;;24.31;30.99
62124;BME280;48110;47.532;19.078;2023-04-25T13:28:15;99382.81;;;27.14;27.34
62124;BME280;48110;47.532;19.078;2023-04-25T13:31:18;99375.75;;;24.97;28.27
62124;BME280;48110;47.532;19.078;2023-04-25T13:34:21;99367.13;;;24.12;30.19
62124;BME280;48110;47.532;19.078;2023-04-25T13:37:24;99357.81;;;23.85;29.82
62124;BME280;48110;47.532;19.078;2023-04-25T13:40:26;99363.66;;;25.08;27.85
62124;BME280;48110;47.532;19.078;2023-04-25T13:43:29;99362.44;;;22.34;30.48
62124;BME280;48110;47.532;19.078;2023-04-25T13:46:31;99357.47;;;21.90;31.76
62124;BME280;48110;47.532;19.078;2023-04-25T13:49:48;99368.06;;;22.02;31.11
62124;BME280;48110;47.532;19.078;2023-04-25T13:52:50;99361.37;;;21.47;31.85
62124;BME280;48110;47.532;19.078;2023-04-25T13:55:52;99363.13;;;23.40;28.77
62124;BME280;48110;47.532;19.078;2023-04-25T13:58:55;99368.47;;;23.66;28.90
62124;BME280;48110;47.532;19.078;2023-04-25T14:01:59;99364.34;;;22.94;30.33
62124;BME280;48110;47.532;19.078;2023-04-25T14:05:03;99366.16;;;25.29;27.10
62124;BME280;48110;47.532;19.078;2023-04-25T14:08:06;99367.75;;;24.04;28.01
62124;BME280;48110;47.532;19.078;2023-04-25T14:11:10;99362.75;;;23.72;28.92
62124;BME280;48110;47.532;19.078;2023-04-25T14:14:16;99362.72;;;21.50;30.87
62124;BME280;48110;47.532;19.078;2023-04-25T14:17:19;99353.56;;;19.81;34.60
62124;BME280;48110;47.532;19.078;2023-04-25T14:20:22;99361.88;;;20.97;32.65
62124;BME280;48110;47.532;19.078;2023-04-25T14:23:26;99350.41;;;18.86;37.08
62124;BME280;48110;47.532;19.078;2023-04-25T14:26:28;99354.97;;;18.52;37.10
62124;BME280;48110;47.532;19.078;2023-04-25T14:29:31;99356.22;;;17.99;38.44
62124;BME280;48110;47.532;19.078;2023-04-25T14:32:33;99349.16;;;17.30;39.23
62124;BME280;48110;47.532;19.078;2023-04-25T14:35:36;99355.88;;;16.92;41.53
62124;BME280;48110;47.532;19.078;2023-04-25T14:38:38;99364.81;;;16.22;42.44
62124;BME280;48110;47.532;19.078;2023-04-25T14:41:41;99358.25;;;16.36;41.95
62124;BME280;48110;47.532;19.078;2023-04-25T14:44:44;99358.28;;;16.18;41.50
62124;BME280;48110;47.532;19.078;2023-04-25T14:47:47;99342.75;;;16.26;43.13
62124;BME280;48110;47.532;19.078;2023-04-25T14:50:49;99352.94;;;16.06;43.59
62124;BME280;48110;47.532;19.078;2023-04-25T14:53:52;99353.47;;;15.96;43.14
62124;BME280;48110;47.532;19.078;2023-04-25T14:56:55;99339.41;;;16.01;43.14
62124;BME280;48110;47.532;19.078;2023-04-25T14:59:59;99341.41;;;15.76;44.12
62124;BME280;48110;47.532;19.078;2023-04-25T15:03:01;99345.75;;;15.88;43.05
62124;BME280;48110;47.532;19.078;2023-04-25T15:06:05;99349.47;;;15.57;43.46
62124;BME280;48110;47.532;19.078;2023-04-25T15:09:08;99364.22;;;15.42;45.53
62124;BME280;48110;47.532;19.078;2023-04-25T15:12:13;99361.03;;;15.70;42.56
62124;BME280;48110;47.532;19.078;2023-04-25T15:15:16;99359.84;;;15.65;43.86
62124;BME280;48110;47.532;19.078;2023-04-25T15:18:27;99350.38;;;15.51;43.59
62124;BME280;48110;47.532;19.078;2023-04-25T15:21:30;99364.97;;;15.49;44.23
62124;BME280;48110;47.532;19.078;2023-04-25T15:24:33;99362.59;;;15.41;44.58
62124;BME280;48110;47.532;19.078;2023-04-25T15:27:35;99358.00;;;15.30;43.23
62124;BME280;48110;47.532;19.078;2023-04-25T15:30:42;99355.84;;;15.38;45.00
62124;BME280;48110;47.532;19.078;2023-04-25T15:33:45;99354.13;;;15.44;43.56
62124;BME280;48110;47.532;19.078;2023-04-25T15:36:48;99354.72;;;15.46;44.36
62124;BME280;48110;47.532;19.078;2023-04-25T15:40:00;99359.31;;;15.20;44.40
62124;BME280;48110;47.532;19.078;2023-04-25T15:43:03;99357.41;;;15.09;44.73
62124;BME280;48110;47.532;19.078;2023-04-25T15:46:05;99360.28;;;15.08;45.23
62124;BME280;48110;47.532;19.078;2023-04-25T15:49:09;99361.31;;;15.07;47.61
62124;BME280;48110;47.532;19.078;2023-04-25T15:52:12;99372.09;;;15.18;46.04
62124;BME280;48110;47.532;19.078;2023-04-25T15:55:14;99375.09;;;14.86;47.15
62124;BME280;48110;47.532;19.078;2023-04-25T15:58:18;99362.00;;;14.77;49.13
62124;BME280;48110;47.532;19.078;2023-04-25T16:01:21;99362.91;;;14.47;52.88
62124;BME280;48110;47.532;19.078;2023-04-25T16:04:26;99370.13;;;14.40;54.33